Terminal Aerodrome Forecast
Issued by NWS Topeka, KS

Home | Current Version | Previous Version | Graphics & Text | Print | Product List | Glossary On
Versions: 1 2 3 4 5 6 7 8 9 10 11 12 13 14 15 16 17 18 19 20 21 22 23 24
000
FTUS43 KTOP 151120
TAFTOP
TAF
KTOP 151120Z 1512/1612 00000KT 3SM BR SCT250
      TEMPO 1512/1513 1SM MIFG
     FM151400 16008KT P6SM SCT060
     FM160600 16005KT P6SM VCTS SCT070CB=

USA.gov is the U.S. government's official web portal to all federal, state and local government web resources and services.